Cathy — WDF2373 — position and weather

sailwx.info

Track history (hours):
 
Tides and Currents Weather Stations Pressure Air Temp Water Temp Dewpoint Dewpoint Depression Visibility Wind Speed Wind Dir Waves Ship Positions

Cathy

Owner: Enterprise Marine Services, LLC, San Antonio, TX. More information available from US FCC via Universal Licensing System and Coast Guard Vessel Documentation Center.

Last reported at 2018-Jun-25 03:23 UTC. Time now 2018-Jun-25 05:44 UTC.
Position N 30°02' W 094°02'.

Length 23 m; draft 2.7 m.

Type: Tug. MMSI: 367017940.

Date/timePositionNaut miles runAvg speedWind from/ knotsBaromVisibWave heightAir tempDewpointWater temp
2018-Jun-25 03:23N 30°02' W 094°02'0 0.0
2018-Jun-25 02:56N 30°02' W 094°02'0 0.0
2018-Jun-25 02:14N 30°02' W 094°02'0 0.1
2018-Jun-25 01:59N 30°02' W 094°02'0 0.0
2018-Jun-25 01:11N 30°02' W 094°02'0 0.0
2018-Jun-25 00:56N 30°02' W 094°02'0 0.0
2018-Jun-25 00:29N 30°02' W 094°02'0 0.0
2018-Jun-24 23:59N 30°02' W 094°02'0 0.0
2018-Jun-24 23:26N 30°02' W 094°02'0 0.0
2018-Jun-24 22:50N 30°02' W 094°02'0 0.0
2018-Jun-24 22:29N 30°02' W 094°02'0 0.0
2018-Jun-24 21:53N 30°02' W 094°02'0 0.0
2018-Jun-24 21:23N 30°02' W 094°02'0 0.0
2018-Jun-24 20:56N 30°02' W 094°02'0 0.0
2018-Jun-24 20:08N 30°02' W 094°02'0 0.0
2018-Jun-24 19:35N 30°02' W 094°02'0 0.0
2018-Jun-24 19:23N 30°02' W 094°02'0 0.0
2018-Jun-24 18:53N 30°02' W 094°02'0 0.0
2018-Jun-24 18:23N 30°02' W 094°02'0 0.0
2018-Jun-24 17:41N 30°02' W 094°02'0 0.0
2018-Jun-24 17:17N 30°02' W 094°02'0 0.0
2018-Jun-24 16:56N 30°02' W 094°02'0 0.0
2018-Jun-24 16:08N 30°02' W 094°02'0 0.0
2018-Jun-24 15:59N 30°02' W 094°02'0 0.0
2018-Jun-24 15:20N 30°02' W 094°02'0 0.0
2018-Jun-24 14:53N 30°02' W 094°02'0 0.0
2018-Jun-24 14:23N 30°02' W 094°02'0 0.0
2018-Jun-24 13:53N 30°02' W 094°02'0 0.0
2018-Jun-24 13:29N 30°02' W 094°02'0 0.0
2018-Jun-24 12:59N 30°02' W 094°02'0 0.0
2018-Jun-24 12:29N 30°02' W 094°02'0 0.0
2018-Jun-24 11:56N 30°02' W 094°02'0 0.1
2018-Jun-24 11:29N 30°02' W 094°02'0 0.5
2018-Jun-24 10:59N 30°02' W 094°02'2 3.2
2018-Jun-24 10:30N 30°04' W 094°02'2 4.1
2018-Jun-24 09:57N 30°05' W 094°05'0 0.0
2018-Jun-24 09:27N 30°05' W 094°05'0 0.0
2018-Jun-24 09:00N 30°05' W 094°05'0 0.0
2018-Jun-24 08:24N 30°05' W 094°05'0 0.0
2018-Jun-24 08:00N 30°05' W 094°05'0 0.0
2018-Jun-24 07:30N 30°05' W 094°05'0 0.0
2018-Jun-24 07:00N 30°05' W 094°05'0 0.0
2018-Jun-24 06:30N 30°05' W 094°05'0 0.0
2018-Jun-24 05:42N 30°05' W 094°05'0 0.0
2018-Jun-24 05:30N 30°05' W 094°05'0 0.0
2018-Jun-24 05:00N 30°05' W 094°05'0 0.0
2018-Jun-24 04:27N 30°05' W 094°05'0 0.0
2018-Jun-24 04:00N 30°05' W 094°05'0 0.0
2018-Jun-24 03:27N 30°05' W 094°05'0 0.0
2018-Jun-24 03:00N 30°05' W 094°05'0 0.0
2018-Jun-24 02:27N 30°05' W 094°05'0 0.0
2018-Jun-24 01:57N 30°05' W 094°05'0 0.0
2018-Jun-24 01:30N 30°05' W 094°05'0 0.0
2018-Jun-24 01:00N 30°05' W 094°05'0 0.0
2018-Jun-24 00:30N 30°05' W 094°05'0 0.0
2018-Jun-23 23:57N 30°05' W 094°05'0 0.0
2018-Jun-23 23:30N 30°05' W 094°05'0 0.0
2018-Jun-23 22:48N 30°05' W 094°05'0 0.0
2018-Jun-23 22:30N 30°05' W 094°05'0 0.0
2018-Jun-23 22:00N 30°05' W 094°05'0 0.0
2018-Jun-23 21:24N 30°05' W 094°05'0 0.0
2018-Jun-23 21:00N 30°05' W 094°05'0 0.0
2018-Jun-23 20:30N 30°05' W 094°05'0 0.0
2018-Jun-23 20:00N 30°05' W 094°05'0 0.0
2018-Jun-23 19:21N 30°05' W 094°05'0 0.0
2018-Jun-23 18:57N 30°05' W 094°05'0 0.0
2018-Jun-23 18:30N 30°05' W 094°05'0 0.1
2018-Jun-23 17:58N 30°05' W 094°05'2 4.4
2018-Jun-23 17:30N 30°04' W 094°03'3 5.8
2018-Jun-23 17:00N 30°01' W 094°01'3 6.3
2018-Jun-23 16:31N 30°01' W 093°58'3 6.1
2018-Jun-23 16:00N 29°59' W 093°55'2 3.1
2018-Jun-23 15:30N 29°59' W 093°53'0 0.0
2018-Jun-23 15:00N 29°59' W 093°53'0 0.0
2018-Jun-23 14:30N 29°59' W 093°53'0 0.0
2018-Jun-23 14:00N 29°59' W 093°53'0 0.0
2018-Jun-23 13:30N 29°59' W 093°53'0 0.0
2018-Jun-23 13:00N 29°59' W 093°53'0 0.0
2018-Jun-23 12:30N 29°59' W 093°53'0 0.0
2018-Jun-23 12:00N 29°59' W 093°53'0 0.0
2018-Jun-23 11:30N 29°59' W 093°53'0 0.0
2018-Jun-23 11:00N 29°59' W 093°53'0 0.0
2018-Jun-23 10:30N 29°59' W 093°53'0 0.0
2018-Jun-23 10:00N 29°59' W 093°53'0 0.0
2018-Jun-23 09:30N 29°59' W 093°53'0 0.0
2018-Jun-23 09:00N 29°59' W 093°53'0 0.0
2018-Jun-23 08:30N 29°59' W 093°53'0 0.0
2018-Jun-23 08:00N 29°59' W 093°53'0 0.0
2018-Jun-23 07:30N 29°59' W 093°53'0 0.0
2018-Jun-23 06:57N 29°59' W 093°53'0 0.0
2018-Jun-23 06:30N 29°59' W 093°53'0 0.0
2018-Jun-23 06:00N 29°59' W 093°53'0 0.0
2018-Jun-23 05:30N 29°59' W 093°53'0 0.0
2018-Jun-23 05:00N 29°59' W 093°53'0 0.0
2018-Jun-23 04:27N 29°59' W 093°53'0 0.0
2018-Jun-23 04:00N 29°59' W 093°53'0 0.0
2018-Jun-23 03:30N 29°59' W 093°53'0 0.0
2018-Jun-23 03:00N 29°59' W 093°53'0 0.0
2018-Jun-23 02:30N 29°59' W 093°53'0 0.0
2018-Jun-23 02:00N 29°59' W 093°53'0 0.0
2018-Jun-23 01:30N 29°59' W 093°53'0 0.0
2018-Jun-23 00:57N 29°59' W 093°53'0 0.0
2018-Jun-23 00:30N 29°59' W 093°53'0 0.0
2018-Jun-23 00:00N 29°59' W 093°53'0 0.0
2018-Jun-22 23:30N 29°59' W 093°53'0 0.0
2018-Jun-22 23:00N 29°59' W 093°53'0 0.0
2018-Jun-22 22:30N 29°59' W 093°53'0 0.0
2018-Jun-22 22:00N 29°59' W 093°53'0 0.0
2018-Jun-22 21:27N 29°59' W 093°53'0 0.0
2018-Jun-22 21:00N 29°59' W 093°53'0 0.0
2018-Jun-22 20:30N 29°59' W 093°53'0 0.0
2018-Jun-22 20:00N 29°59' W 093°53'0 0.0
2018-Jun-22 19:30N 29°59' W 093°53'0 0.0
2018-Jun-22 19:00N 29°59' W 093°53'0 0.0
2018-Jun-22 18:30N 29°59' W 093°53'0 0.0
2018-Jun-22 18:00N 29°59' W 093°53'0 0.0
2018-Jun-22 17:30N 29°59' W 093°53'0 0.1
2018-Jun-22 17:00N 29°59' W 093°53'1 2.5
2018-Jun-22 16:30N 29°59' W 093°52'1 2.8
2018-Jun-22 16:00N 29°57' W 093°52'0 0.4
2018-Jun-22 15:30N 29°57' W 093°52'1 1.7
2018-Jun-22 14:57N 29°58' W 093°52'1 1.2
2018-Jun-22 14:30N 29°58' W 093°52'0 0.0
2018-Jun-22 13:50N 29°58' W 093°52'0 0.0
2018-Jun-22 13:29N 29°58' W 093°52'0 0.0
2018-Jun-22 12:59N 29°58' W 093°52'0 0.0
2018-Jun-22 12:29N 29°58' W 093°52'0 0.0
2018-Jun-22 11:59N 29°58' W 093°52'0 0.0
2018-Jun-22 11:26N 29°58' W 093°52'0 0.0
2018-Jun-22 10:47N 29°58' W 093°52'0 0.0
2018-Jun-22 10:26N 29°58' W 093°52'0 0.0
2018-Jun-22 09:59N 29°58' W 093°52'0 0.0
2018-Jun-22 09:26N 29°58' W 093°52'0 0.0
2018-Jun-22 08:59N 29°58' W 093°52'0 0.0
2018-Jun-22 08:29N 29°58' W 093°52'0 0.0
2018-Jun-22 07:59N 29°58' W 093°52'0 0.0
2018-Jun-22 07:26N 29°58' W 093°52'0 0.0
2018-Jun-22 06:53N 29°58' W 093°52'0 0.0
2018-Jun-22 06:29N 29°58' W 093°52'0 0.1
2018-Jun-22 05:53N 29°58' W 093°52'0 0.1
2018-Jun-22 05:19N 29°58' W 093°52'0 0.0
2018-Jun-22 04:52N 29°58' W 093°52'0 0.0
2018-Jun-22 04:28N 29°58' W 093°52'0 0.0
2018-Jun-22 03:55N 29°58' W 093°52'0 0.0
2018-Jun-22 03:28N 29°58' W 093°52'0 0.0
2018-Jun-22 02:58N 29°58' W 093°52'0 0.0
2018-Jun-22 02:22N 29°58' W 093°52'0 0.0
2018-Jun-22 01:52N 29°58' W 093°52'0 0.0
2018-Jun-22 01:28N 29°58' W 093°52'0 0.0
2018-Jun-22 00:58N 29°58' W 093°52'0 0.0
2018-Jun-22 00:28N 29°58' W 093°52'0 0.0
2018-Jun-21 23:55N 29°58' W 093°52'0 0.0
2018-Jun-21 23:28N 29°58' W 093°52'0 0.0
2018-Jun-21 22:58N 29°58' W 093°52'0 0.0
2018-Jun-21 22:28N 29°58' W 093°52'0 0.0
2018-Jun-21 21:49N 29°58' W 093°52'0 0.0
2018-Jun-21 21:25N 29°58' W 093°52'0 0.0
2018-Jun-21 20:52N 29°58' W 093°52'0 0.0
2018-Jun-21 20:28N 29°58' W 093°52'0 0.0
2018-Jun-21 19:55N 29°58' W 093°52'0 0.0
2018-Jun-21 19:28N 29°58' W 093°52'0 0.0
2018-Jun-21 18:58N 29°58' W 093°52'0 0.0
2018-Jun-21 18:28N 29°58' W 093°52'0 0.0
2018-Jun-21 17:59N 29°58' W 093°52'0 0.0
2018-Jun-21 17:23N 29°58' W 093°52'0 0.0
2018-Jun-21 16:59N 29°58' W 093°52'0 0.0
2018-Jun-21 16:29N 29°58' W 093°52'0 0.0
2018-Jun-21 15:56N 29°58' W 093°52'0 0.0
2018-Jun-21 15:26N 29°58' W 093°52'0 0.0
2018-Jun-21 14:50N 29°58' W 093°52'0 0.0
2018-Jun-21 14:29N 29°58' W 093°52'0 0.0
2018-Jun-21 13:53N 29°58' W 093°52'0 0.0
2018-Jun-21 13:29N 29°58' W 093°52'0 0.0
2018-Jun-21 12:59N 29°58' W 093°52'0 0.0
2018-Jun-21 12:29N 29°58' W 093°52'0 0.0
2018-Jun-21 11:59N 29°58' W 093°52'0 0.0
2018-Jun-21 11:29N 29°58' W 093°52'0 0.0
2018-Jun-21 10:59N 29°58' W 093°52'0 0.0
2018-Jun-21 10:29N 29°58' W 093°52'0 0.0
2018-Jun-21 09:59N 29°58' W 093°52'0 0.0
2018-Jun-21 09:29N 29°58' W 093°52'0 0.0
2018-Jun-21 08:50N 29°58' W 093°52'0 0.0
2018-Jun-21 08:29N 29°58' W 093°52'0 0.0
2018-Jun-21 07:59N 29°58' W 093°52'0 0.0
2018-Jun-21 07:29N 29°58' W 093°52'0 0.0
2018-Jun-21 06:59N 29°58' W 093°52'0 0.0
2018-Jun-21 06:29N 29°58' W 093°52'0 0.0
2018-Jun-21 05:59N 29°58' W 093°52'0 0.0
2018-Jun-21 05:29N 29°58' W 093°52'0 0.0
2018-Jun-21 04:53N 29°58' W 093°52'0 0.0
2018-Jun-21 04:29N 29°58' W 093°52'0 0.0
2018-Jun-21 03:59N 29°58' W 093°52'0 0.0
2018-Jun-21 03:29N 29°58' W 093°52'0 0.0
2018-Jun-21 02:41N 29°58' W 093°52'0 0.0
2018-Jun-21 02:23N 29°58' W 093°52'0 0.0
2018-Jun-21 01:56N 29°58' W 093°52'0 0.0
2018-Jun-21 01:29N 29°58' W 093°52'0 0.0
2018-Jun-21 00:59N 29°58' W 093°52'0 0.0
2018-Jun-21 00:29N 29°58' W 093°52'0 0.0
2018-Jun-20 23:53N 29°58' W 093°52'0 0.0
2018-Jun-20 23:29N 29°58' W 093°52'0 0.0
2018-Jun-20 22:59N 29°58' W 093°52'0 0.0
2018-Jun-20 22:29N 29°58' W 093°52'0 0.0
2018-Jun-20 21:59N 29°58' W 093°52'0 0.0
2018-Jun-20 21:29N 29°58' W 093°52'0 0.0
2018-Jun-20 20:59N 29°58' W 093°52'0 0.0
2018-Jun-20 20:29N 29°58' W 093°52'0 0.0
2018-Jun-20 19:53N 29°58' W 093°52'0 0.0
2018-Jun-20 19:26N 29°58' W 093°52'0 0.0
2018-Jun-20 18:59N 29°58' W 093°52'0 0.0
2018-Jun-20 18:26N 29°58' W 093°52'0 0.0
2018-Jun-20 17:59N 29°58' W 093°52'0 0.0
2018-Jun-20 17:29N 29°58' W 093°52'0 0.0
2018-Jun-20 16:53N 29°58' W 093°52'0 0.0
2018-Jun-20 16:29N 29°58' W 093°52'0 0.0
2018-Jun-20 15:59N 29°58' W 093°52'0 0.0
2018-Jun-20 15:29N 29°58' W 093°52'0 0.0
2018-Jun-20 14:59N 29°58' W 093°52'0 0.0
2018-Jun-20 14:29N 29°58' W 093°52'0 0.0
2018-Jun-20 13:56N 29°58' W 093°52'0 0.0
2018-Jun-20 13:29N 29°58' W 093°52'0 0.0
2018-Jun-20 12:59N 29°58' W 093°52'0 0.0
2018-Jun-20 12:29N 29°58' W 093°52'0 0.0
2018-Jun-20 11:59N 29°58' W 093°52'0 0.0
2018-Jun-20 11:29N 29°58' W 093°52'0 0.0
2018-Jun-20 10:59N 29°58' W 093°52'0 0.0
2018-Jun-20 10:29N 29°58' W 093°52'0 0.0
2018-Jun-20 09:59N 29°58' W 093°52'0 0.0
2018-Jun-20 09:26N 29°58' W 093°52'0 0.0
2018-Jun-20 08:59N 29°58' W 093°52'0 0.0
2018-Jun-20 08:23N 29°58' W 093°52'0 0.0
2018-Jun-20 07:59N 29°58' W 093°52'0 0.0
2018-Jun-20 07:29N 29°58' W 093°52'0 0.0
2018-Jun-20 06:56N 29°58' W 093°52'0 0.0
2018-Jun-20 06:29N 29°58' W 093°52'0 0.0
2018-Jun-20 05:53N 29°58' W 093°52'0 0.0
2018-Jun-20 05:29N 29°58' W 093°52'0 0.0
2018-Jun-20 04:59N 29°58' W 093°52'0 0.0
2018-Jun-20 04:29N 29°58' W 093°52'0 0.0
2018-Jun-20 03:59N 29°58' W 093°52'0 0.0
2018-Jun-20 03:26N 29°58' W 093°52'0 0.0
2018-Jun-20 02:53N 29°58' W 093°52'0 0.0
2018-Jun-20 02:29N 29°58' W 093°52'0 0.0
2018-Jun-20 01:59N 29°58' W 093°52'0 0.0
2018-Jun-20 01:29N 29°58' W 093°52'0 0.0
2018-Jun-20 00:56N 29°58' W 093°52'0 0.0
2018-Jun-20 00:26N 29°58' W 093°52'0 0.0
2018-Jun-19 23:50N 29°58' W 093°52'0 0.0
2018-Jun-19 23:29N 29°58' W 093°52'0 0.0
2018-Jun-19 22:53N 29°58' W 093°52'0 0.0
2018-Jun-19 22:26N 29°58' W 093°52'0 0.0
2018-Jun-19 21:59N 29°58' W 093°52'0 0.0
2018-Jun-19 21:29N 29°58' W 093°52'0 0.0
2018-Jun-19 21:00N 29°58' W 093°52'0 0.9
2018-Jun-19 20:29N 29°58' W 093°52'0 0.2
2018-Jun-19 19:59N 29°58' W 093°52'1 2.3
2018-Jun-19 19:30N 29°59' W 093°52'1 2.1
2018-Jun-19 18:59N 29°58' W 093°52'0 0.0
2018-Jun-19 18:30N 29°58' W 093°52'1 2.6
2018-Jun-19 17:59N 29°59' W 093°53'1 2.6
2018-Jun-19 17:28N 29°58' W 093°52'1 1.7
2018-Jun-19 17:00N 29°57' W 093°52'0 0.6
2018-Jun-19 16:30N 29°58' W 093°52'0 0.0
2018-Jun-19 16:00N 29°58' W 093°52'0 0.0
2018-Jun-19 15:30N 29°58' W 093°52'0 0.0
2018-Jun-19 14:51N 29°58' W 093°52'0 0.0
2018-Jun-19 14:30N 29°58' W 093°52'0 0.0
2018-Jun-19 14:00N 29°58' W 093°52'0 0.0
2018-Jun-19 13:27N 29°58' W 093°52'0 0.0
2018-Jun-19 13:00N 29°58' W 093°52'0 0.0
2018-Jun-19 12:30N 29°58' W 093°52'0 0.0
2018-Jun-19 12:00N 29°58' W 093°52'0 0.0
2018-Jun-19 11:27N 29°58' W 093°52'0 0.0
2018-Jun-19 11:00N 29°58' W 093°52'0 0.0
2018-Jun-19 10:30N 29°58' W 093°52'0 0.0
2018-Jun-19 10:00N 29°58' W 093°52'0 0.0
2018-Jun-19 09:30N 29°58' W 093°52'0 0.0
2018-Jun-19 09:00N 29°58' W 093°52'0 0.0
2018-Jun-19 08:27N 29°58' W 093°52'0 0.0
2018-Jun-19 07:57N 29°58' W 093°52'0 0.0
2018-Jun-19 07:30N 29°58' W 093°52'0 0.0
2018-Jun-19 07:00N 29°58' W 093°52'0 0.0
2018-Jun-19 06:30N 29°58' W 093°52'0 0.0
2018-Jun-19 06:00N 29°58' W 093°52'0 0.0
2018-Jun-19 05:12N 29°58' W 093°52'0 0.0
2018-Jun-19 04:51N 29°58' W 093°52'0 0.0
2018-Jun-19 04:24N 29°58' W 093°52'0 0.0
2018-Jun-19 04:00N 29°58' W 093°52'0 0.0
2018-Jun-19 03:30N 29°58' W 093°52'0 0.0
2018-Jun-19 03:00N 29°58' W 093°52'0 0.0
2018-Jun-19 02:27N 29°58' W 093°52'0 0.0
2018-Jun-19 02:00N 29°58' W 093°52'0 0.0
2018-Jun-19 01:30N 29°58' W 093°52'0 0.0
2018-Jun-19 00:57N 29°58' W 093°52'0 0.0
2018-Jun-19 00:30N 29°58' W 093°52'0 0.0
2018-Jun-19 00:00N 29°58' W 093°52'0 0.0
2018-Jun-18 23:21N 29°58' W 093°52'0 0.0
2018-Jun-18 22:54N 29°58' W 093°52'0 0.0
2018-Jun-18 22:27N 29°58' W 093°52'0 0.0
2018-Jun-18 22:00N 29°58' W 093°52'0 0.0
2018-Jun-18 21:30N 29°58' W 093°52'0 0.0
2018-Jun-18 21:00N 29°58' W 093°52'0 0.0
2018-Jun-18 20:30N 29°58' W 093°52'0 0.0
2018-Jun-18 20:00N 29°58' W 093°52'0 0.0
2018-Jun-18 19:30N 29°58' W 093°52'0 0.0
2018-Jun-18 19:00N 29°58' W 093°52'0 0.0
2018-Jun-18 18:30N 29°58' W 093°52'0 0.0
2018-Jun-18 18:00N 29°58' W 093°52'0 0.0
2018-Jun-18 17:30N 29°58' W 093°52'0 0.0
2018-Jun-18 16:57N 29°58' W 093°52'0 0.0
2018-Jun-18 16:30N 29°58' W 093°52'0 0.0
2018-Jun-18 15:57N 29°58' W 093°52'0 0.0
2018-Jun-18 15:30N 29°58' W 093°52'0 0.0
2018-Jun-18 15:00N 29°58' W 093°52'0 0.0
2018-Jun-18 14:27N 29°58' W 093°52'0 0.0
2018-Jun-18 14:00N 29°58' W 093°52'0 0.0
2018-Jun-18 13:30N 29°58' W 093°52'0 0.0
2018-Jun-18 13:00N 29°58' W 093°52'0 0.0
2018-Jun-18 12:30N 29°58' W 093°52'0 0.0
2018-Jun-18 12:00N 29°58' W 093°52'0 0.0
2018-Jun-18 11:30N 29°58' W 093°52'0 0.0
2018-Jun-18 11:00N 29°58' W 093°52'0 0.0
2018-Jun-18 10:30N 29°58' W 093°52'0 0.0
2018-Jun-18 10:00N 29°58' W 093°52'0 0.0
2018-Jun-18 09:30N 29°58' W 093°52'0 0.0
2018-Jun-18 09:00N 29°58' W 093°52'0 0.0
2018-Jun-18 08:30N 29°58' W 093°52'0 0.0
2018-Jun-18 08:00N 29°58' W 093°52'0 0.0
2018-Jun-18 07:30N 29°58' W 093°52'0 0.0
2018-Jun-18 07:00N 29°58' W 093°52'0 0.0
2018-Jun-18 06:30N 29°58' W 093°52'0 0.0
2018-Jun-18 06:00N 29°58' W 093°52'0 0.0
2018-Jun-18 05:21N 29°58' W 093°52'0 0.0
2018-Jun-18 05:00N 29°58' W 093°52'0 0.0
2018-Jun-18 04:27N 29°58' W 093°52'0 0.0
2018-Jun-18 04:00N 29°58' W 093°52'0 0.0
2018-Jun-18 03:30N 29°58' W 093°52'0 0.1
2018-Jun-18 03:01N 29°58' W 093°52'0 0.3
2018-Jun-18 02:31N 29°57' W 093°52'1 1.6
2018-Jun-18 02:00N 29°57' W 093°52'1 1.3
2018-Jun-18 01:30N 29°56' W 093°52'3 6.4
2018-Jun-18 01:01N 29°54' W 093°55'4 7.0
2018-Jun-18 00:31N 29°51' W 093°57'2 4.6
2018-Jun-18 00:01N 29°49' W 093°59'0 0.7
2018-Jun-17 23:27N 29°49' W 093°59'1 2.1
2018-Jun-17 23:00N 29°48' W 094°00'2 4.6
2018-Jun-17 22:30N 29°47' W 094°02'2 4.6
2018-Jun-17 22:00N 29°45' W 094°04'2 4.6
2018-Jun-17 21:30N 29°44' W 094°06'2 4.6
2018-Jun-17 21:00N 29°42' W 094°08'2 4.2
2018-Jun-17 20:27N 29°41' W 094°10'2 3.6
2018-Jun-17 20:00N 29°41' W 094°12'2 4.7
2018-Jun-17 19:30N 29°40' W 094°15'2 4.6
2018-Jun-17 18:59N 29°39' W 094°17'34 2.9
2018-Jun-17 07:16N 29°35' W 094°56'2 7.1
2018-Jun-17 07:00N 29°36' W 094°57'3 5.4
2018-Jun-17 06:29N 29°37' W 095°00'1 2.0
2018-Jun-17 06:00N 29°37' W 095°01'0 0.1
2018-Jun-17 05:30N 29°37' W 095°02'0 0.1
2018-Jun-17 04:58N 29°37' W 095°02'0 0.0
2018-Jun-17 04:25N 29°37' W 095°02'0 0.0
2018-Jun-17 03:55N 29°37' W 095°02'0 0.0
2018-Jun-17 03:28N 29°37' W 095°02'0 0.0
2018-Jun-17 02:58N 29°37' W 095°02'0 0.0
2018-Jun-17 02:25N 29°37' W 095°02'0 0.0
2018-Jun-17 01:58N 29°37' W 095°02'0 0.0
2018-Jun-17 01:25N 29°37' W 095°02'0 0.0
2018-Jun-17 00:58N 29°37' W 095°02'0 0.0
2018-Jun-17 00:28N 29°37' W 095°02'0 0.0
2018-Jun-16 23:58N 29°37' W 095°02'0 0.0
2018-Jun-16 23:28N 29°37' W 095°02'0 0.0
2018-Jun-16 22:55N 29°37' W 095°02'0 0.0
2018-Jun-16 22:28N 29°37' W 095°02'0 0.0
2018-Jun-16 21:55N 29°37' W 095°02'0 0.0
2018-Jun-16 21:28N 29°37' W 095°02'0 0.0
2018-Jun-16 20:58N 29°37' W 095°02'0 0.0
2018-Jun-16 20:28N 29°37' W 095°02'0 0.0
2018-Jun-16 19:58N 29°37' W 095°02'0 0.0
2018-Jun-16 19:28N 29°37' W 095°02'0 0.0
2018-Jun-16 18:58N 29°37' W 095°02'0 0.0
2018-Jun-16 18:28N 29°37' W 095°02'0 0.0
2018-Jun-16 17:58N 29°37' W 095°02'0 0.0
2018-Jun-16 17:28N 29°37' W 095°02'0 0.0
2018-Jun-16 16:58N 29°37' W 095°02'0 0.0
2018-Jun-16 16:25N 29°37' W 095°02'0 0.0
2018-Jun-16 15:55N 29°37' W 095°02'0 0.0
2018-Jun-16 15:22N 29°37' W 095°02'0 0.0
2018-Jun-16 14:46N 29°37' W 095°02'0 0.0
2018-Jun-16 14:28N 29°37' W 095°02'0 0.0
2018-Jun-16 13:55N 29°37' W 095°02'0 0.0
2018-Jun-16 13:28N 29°37' W 095°02'0 0.0
2018-Jun-16 12:52N 29°37' W 095°02'0 0.0
2018-Jun-16 12:28N 29°37' W 095°02'0 0.0
2018-Jun-16 09:19N 29°37' W 095°02'0 0.0
2018-Jun-16 08:57N 29°37' W 095°02'1 2.6
2018-Jun-16 08:30N 29°37' W 095°00'2 4.7
2018-Jun-16 08:00N 29°38' W 094°58'4 7.7
2018-Jun-16 07:30N 29°41' W 094°59'  
Track history (hours):
 
Tides and Currents Weather Stations Pressure Air Temp Water Temp Dewpoint Dewpoint Depression Visibility Wind Speed Wind Dir Waves Ship Positions

Cathy

Owner: Enterprise Marine Services, LLC, San Antonio, TX. More information available from US FCC via Universal Licensing System and Coast Guard Vessel Documentation Center.

Last reported at 2018-Jun-25 03:23 UTC. Time now 2018-Jun-25 05:44 UTC.
Position N 30°02' W 094°02'.

Length 23 m; draft 2.7 m.

Type: Tug. MMSI: 367017940.

Date/timePositionNaut miles runAvg speedWind from/ knotsBaromVisibWave heightAir tempDewpointWater temp
2018-Jun-25 03:23N 30°02' W 094°02'0 0.0
2018-Jun-25 02:56N 30°02' W 094°02'0 0.0
2018-Jun-25 02:14N 30°02' W 094°02'0 0.1
2018-Jun-25 01:59N 30°02' W 094°02'0 0.0
2018-Jun-25 01:11N 30°02' W 094°02'0 0.0
2018-Jun-25 00:56N 30°02' W 094°02'0 0.0
2018-Jun-25 00:29N 30°02' W 094°02'0 0.0
2018-Jun-24 23:59N 30°02' W 094°02'0 0.0
2018-Jun-24 23:26N 30°02' W 094°02'0 0.0
2018-Jun-24 22:50N 30°02' W 094°02'0 0.0
2018-Jun-24 22:29N 30°02' W 094°02'0 0.0
2018-Jun-24 21:53N 30°02' W 094°02'0 0.0
2018-Jun-24 21:23N 30°02' W 094°02'0 0.0
2018-Jun-24 20:56N 30°02' W 094°02'0 0.0
2018-Jun-24 20:08N 30°02' W 094°02'0 0.0
2018-Jun-24 19:35N 30°02' W 094°02'0 0.0
2018-Jun-24 19:23N 30°02' W 094°02'0 0.0
2018-Jun-24 18:53N 30°02' W 094°02'0 0.0
2018-Jun-24 18:23N 30°02' W 094°02'0 0.0
2018-Jun-24 17:41N 30°02' W 094°02'0 0.0
2018-Jun-24 17:17N 30°02' W 094°02'0 0.0
2018-Jun-24 16:56N 30°02' W 094°02'0 0.0
2018-Jun-24 16:08N 30°02' W 094°02'0 0.0
2018-Jun-24 15:59N 30°02' W 094°02'0 0.0
2018-Jun-24 15:20N 30°02' W 094°02'0 0.0
2018-Jun-24 14:53N 30°02' W 094°02'0 0.0
2018-Jun-24 14:23N 30°02' W 094°02'0 0.0
2018-Jun-24 13:53N 30°02' W 094°02'0 0.0
2018-Jun-24 13:29N 30°02' W 094°02'0 0.0
2018-Jun-24 12:59N 30°02' W 094°02'0 0.0
2018-Jun-24 12:29N 30°02' W 094°02'0 0.0
2018-Jun-24 11:56N 30°02' W 094°02'0 0.1
2018-Jun-24 11:29N 30°02' W 094°02'0 0.5
2018-Jun-24 10:59N 30°02' W 094°02'2 3.2
2018-Jun-24 10:30N 30°04' W 094°02'2 4.1
2018-Jun-24 09:57N 30°05' W 094°05'0 0.0
2018-Jun-24 09:27N 30°05' W 094°05'0 0.0
2018-Jun-24 09:00N 30°05' W 094°05'0 0.0
2018-Jun-24 08:24N 30°05' W 094°05'0 0.0
2018-Jun-24 08:00N 30°05' W 094°05'0 0.0
2018-Jun-24 07:30N 30°05' W 094°05'0 0.0
2018-Jun-24 07:00N 30°05' W 094°05'0 0.0
2018-Jun-24 06:30N 30°05' W 094°05'0 0.0
2018-Jun-24 05:42N 30°05' W 094°05'0 0.0
2018-Jun-24 05:30N 30°05' W 094°05'0 0.0
2018-Jun-24 05:00N 30°05' W 094°05'0 0.0
2018-Jun-24 04:27N 30°05' W 094°05'0 0.0
2018-Jun-24 04:00N 30°05' W 094°05'0 0.0
2018-Jun-24 03:27N 30°05' W 094°05'0 0.0
2018-Jun-24 03:00N 30°05' W 094°05'0 0.0
2018-Jun-24 02:27N 30°05' W 094°05'0 0.0
2018-Jun-24 01:57N 30°05' W 094°05'0 0.0
2018-Jun-24 01:30N 30°05' W 094°05'0 0.0
2018-Jun-24 01:00N 30°05' W 094°05'0 0.0
2018-Jun-24 00:30N 30°05' W 094°05'0 0.0
2018-Jun-23 23:57N 30°05' W 094°05'0 0.0
2018-Jun-23 23:30N 30°05' W 094°05'0 0.0
2018-Jun-23 22:48N 30°05' W 094°05'0 0.0
2018-Jun-23 22:30N 30°05' W 094°05'0 0.0
2018-Jun-23 22:00N 30°05' W 094°05'0 0.0
2018-Jun-23 21:24N 30°05' W 094°05'0 0.0
2018-Jun-23 21:00N 30°05' W 094°05'0 0.0
2018-Jun-23 20:30N 30°05' W 094°05'0 0.0
2018-Jun-23 20:00N 30°05' W 094°05'0 0.0
2018-Jun-23 19:21N 30°05' W 094°05'0 0.0
2018-Jun-23 18:57N 30°05' W 094°05'0 0.0
2018-Jun-23 18:30N 30°05' W 094°05'0 0.1
2018-Jun-23 17:58N 30°05' W 094°05'2 4.4
2018-Jun-23 17:30N 30°04' W 094°03'3 5.8
2018-Jun-23 17:00N 30°01' W 094°01'3 6.3
2018-Jun-23 16:31N 30°01' W 093°58'3 6.1
2018-Jun-23 16:00N 29°59' W 093°55'2 3.1
2018-Jun-23 15:30N 29°59' W 093°53'0 0.0
2018-Jun-23 15:00N 29°59' W 093°53'0 0.0
2018-Jun-23 14:30N 29°59' W 093°53'0 0.0
2018-Jun-23 14:00N 29°59' W 093°53'0 0.0
2018-Jun-23 13:30N 29°59' W 093°53'0 0.0
2018-Jun-23 13:00N 29°59' W 093°53'0 0.0
2018-Jun-23 12:30N 29°59' W 093°53'0 0.0
2018-Jun-23 12:00N 29°59' W 093°53'0 0.0
2018-Jun-23 11:30N 29°59' W 093°53'0 0.0
2018-Jun-23 11:00N 29°59' W 093°53'0 0.0
2018-Jun-23 10:30N 29°59' W 093°53'0 0.0
2018-Jun-23 10:00N 29°59' W 093°53'0 0.0
2018-Jun-23 09:30N 29°59' W 093°53'0 0.0
2018-Jun-23 09:00N 29°59' W 093°53'0 0.0
2018-Jun-23 08:30N 29°59' W 093°53'0 0.0
2018-Jun-23 08:00N 29°59' W 093°53'0 0.0
2018-Jun-23 07:30N 29°59' W 093°53'0 0.0
2018-Jun-23 06:57N 29°59' W 093°53'0 0.0
2018-Jun-23 06:30N 29°59' W 093°53'0 0.0
2018-Jun-23 06:00N 29°59' W 093°53'0 0.0
2018-Jun-23 05:30N 29°59' W 093°53'0 0.0
2018-Jun-23 05:00N 29°59' W 093°53'0 0.0
2018-Jun-23 04:27N 29°59' W 093°53'0 0.0
2018-Jun-23 04:00N 29°59' W 093°53'0 0.0
2018-Jun-23 03:30N 29°59' W 093°53'0 0.0
2018-Jun-23 03:00N 29°59' W 093°53'0 0.0
2018-Jun-23 02:30N 29°59' W 093°53'0 0.0
2018-Jun-23 02:00N 29°59' W 093°53'0 0.0
2018-Jun-23 01:30N 29°59' W 093°53'0 0.0
2018-Jun-23 00:57N 29°59' W 093°53'0 0.0
2018-Jun-23 00:30N 29°59' W 093°53'0 0.0
2018-Jun-23 00:00N 29°59' W 093°53'0 0.0
2018-Jun-22 23:30N 29°59' W 093°53'0 0.0
2018-Jun-22 23:00N 29°59' W 093°53'0 0.0
2018-Jun-22 22:30N 29°59' W 093°53'0 0.0
2018-Jun-22 22:00N 29°59' W 093°53'0 0.0
2018-Jun-22 21:27N 29°59' W 093°53'0 0.0
2018-Jun-22 21:00N 29°59' W 093°53'0 0.0
2018-Jun-22 20:30N 29°59' W 093°53'0 0.0
2018-Jun-22 20:00N 29°59' W 093°53'0 0.0
2018-Jun-22 19:30N 29°59' W 093°53'0 0.0
2018-Jun-22 19:00N 29°59' W 093°53'0 0.0
2018-Jun-22 18:30N 29°59' W 093°53'0 0.0
2018-Jun-22 18:00N 29°59' W 093°53'0 0.0
2018-Jun-22 17:30N 29°59' W 093°53'0 0.1
2018-Jun-22 17:00N 29°59' W 093°53'1 2.5
2018-Jun-22 16:30N 29°59' W 093°52'1 2.8
2018-Jun-22 16:00N 29°57' W 093°52'0 0.4
2018-Jun-22 15:30N 29°57' W 093°52'1 1.7
2018-Jun-22 14:57N 29°58' W 093°52'1 1.2
2018-Jun-22 14:30N 29°58' W 093°52'0 0.0
2018-Jun-22 13:50N 29°58' W 093°52'0 0.0
2018-Jun-22 13:29N 29°58' W 093°52'0 0.0
2018-Jun-22 12:59N 29°58' W 093°52'0 0.0
2018-Jun-22 12:29N 29°58' W 093°52'0 0.0
2018-Jun-22 11:59N 29°58' W 093°52'0 0.0
2018-Jun-22 11:26N 29°58' W 093°52'0 0.0
2018-Jun-22 10:47N 29°58' W 093°52'0 0.0
2018-Jun-22 10:26N 29°58' W 093°52'0 0.0
2018-Jun-22 09:59N 29°58' W 093°52'0 0.0
2018-Jun-22 09:26N 29°58' W 093°52'0 0.0
2018-Jun-22 08:59N 29°58' W 093°52'0 0.0
2018-Jun-22 08:29N 29°58' W 093°52'0 0.0
2018-Jun-22 07:59N 29°58' W 093°52'0 0.0
2018-Jun-22 07:26N 29°58' W 093°52'0 0.0
2018-Jun-22 06:53N 29°58' W 093°52'0 0.0
2018-Jun-22 06:29N 29°58' W 093°52'0 0.1
2018-Jun-22 05:53N 29°58' W 093°52'0 0.1
2018-Jun-22 05:19N 29°58' W 093°52'0 0.0
2018-Jun-22 04:52N 29°58' W 093°52'0 0.0
2018-Jun-22 04:28N 29°58' W 093°52'0 0.0
2018-Jun-22 03:55N 29°58' W 093°52'0 0.0
2018-Jun-22 03:28N 29°58' W 093°52'0 0.0
2018-Jun-22 02:58N 29°58' W 093°52'0 0.0
2018-Jun-22 02:22N 29°58' W 093°52'0 0.0
2018-Jun-22 01:52N 29°58' W 093°52'0 0.0
2018-Jun-22 01:28N 29°58' W 093°52'0 0.0
2018-Jun-22 00:58N 29°58' W 093°52'0 0.0
2018-Jun-22 00:28N 29°58' W 093°52'0 0.0
2018-Jun-21 23:55N 29°58' W 093°52'0 0.0
2018-Jun-21 23:28N 29°58' W 093°52'0 0.0
2018-Jun-21 22:58N 29°58' W 093°52'0 0.0
2018-Jun-21 22:28N 29°58' W 093°52'0 0.0
2018-Jun-21 21:49N 29°58' W 093°52'0 0.0
2018-Jun-21 21:25N 29°58' W 093°52'0 0.0
2018-Jun-21 20:52N 29°58' W 093°52'0 0.0
2018-Jun-21 20:28N 29°58' W 093°52'0 0.0
2018-Jun-21 19:55N 29°58' W 093°52'0 0.0
2018-Jun-21 19:28N 29°58' W 093°52'0 0.0
2018-Jun-21 18:58N 29°58' W 093°52'0 0.0
2018-Jun-21 18:28N 29°58' W 093°52'0 0.0
2018-Jun-21 17:59N 29°58' W 093°52'0 0.0
2018-Jun-21 17:23N 29°58' W 093°52'0 0.0
2018-Jun-21 16:59N 29°58' W 093°52'0 0.0
2018-Jun-21 16:29N 29°58' W 093°52'0 0.0
2018-Jun-21 15:56N 29°58' W 093°52'0 0.0
2018-Jun-21 15:26N 29°58' W 093°52'0 0.0
2018-Jun-21 14:50N 29°58' W 093°52'0 0.0
2018-Jun-21 14:29N 29°58' W 093°52'0 0.0
2018-Jun-21 13:53N 29°58' W 093°52'0 0.0
2018-Jun-21 13:29N 29°58' W 093°52'0 0.0
2018-Jun-21 12:59N 29°58' W 093°52'0 0.0
2018-Jun-21 12:29N 29°58' W 093°52'0 0.0
2018-Jun-21 11:59N 29°58' W 093°52'0 0.0
2018-Jun-21 11:29N 29°58' W 093°52'0 0.0
2018-Jun-21 10:59N 29°58' W 093°52'0 0.0
2018-Jun-21 10:29N 29°58' W 093°52'0 0.0
2018-Jun-21 09:59N 29°58' W 093°52'0 0.0
2018-Jun-21 09:29N 29°58' W 093°52'0 0.0
2018-Jun-21 08:50N 29°58' W 093°52'0 0.0
2018-Jun-21 08:29N 29°58' W 093°52'0 0.0
2018-Jun-21 07:59N 29°58' W 093°52'0 0.0
2018-Jun-21 07:29N 29°58' W 093°52'0 0.0
2018-Jun-21 06:59N 29°58' W 093°52'0 0.0
2018-Jun-21 06:29N 29°58' W 093°52'0 0.0
2018-Jun-21 05:59N 29°58' W 093°52'0 0.0
2018-Jun-21 05:29N 29°58' W 093°52'0 0.0
2018-Jun-21 04:53N 29°58' W 093°52'0 0.0
2018-Jun-21 04:29N 29°58' W 093°52'0 0.0
2018-Jun-21 03:59N 29°58' W 093°52'0 0.0
2018-Jun-21 03:29N 29°58' W 093°52'0 0.0
2018-Jun-21 02:41N 29°58' W 093°52'0 0.0
2018-Jun-21 02:23N 29°58' W 093°52'0 0.0
2018-Jun-21 01:56N 29°58' W 093°52'0 0.0
2018-Jun-21 01:29N 29°58' W 093°52'0 0.0
2018-Jun-21 00:59N 29°58' W 093°52'0 0.0
2018-Jun-21 00:29N 29°58' W 093°52'0 0.0
2018-Jun-20 23:53N 29°58' W 093°52'0 0.0
2018-Jun-20 23:29N 29°58' W 093°52'0 0.0
2018-Jun-20 22:59N 29°58' W 093°52'0 0.0
2018-Jun-20 22:29N 29°58' W 093°52'0 0.0
2018-Jun-20 21:59N 29°58' W 093°52'0 0.0
2018-Jun-20 21:29N 29°58' W 093°52'0 0.0
2018-Jun-20 20:59N 29°58' W 093°52'0 0.0
2018-Jun-20 20:29N 29°58' W 093°52'0 0.0
2018-Jun-20 19:53N 29°58' W 093°52'0 0.0
2018-Jun-20 19:26N 29°58' W 093°52'0 0.0
2018-Jun-20 18:59N 29°58' W 093°52'0 0.0
2018-Jun-20 18:26N 29°58' W 093°52'0 0.0
2018-Jun-20 17:59N 29°58' W 093°52'0 0.0
2018-Jun-20 17:29N 29°58' W 093°52'0 0.0
2018-Jun-20 16:53N 29°58' W 093°52'0 0.0
2018-Jun-20 16:29N 29°58' W 093°52'0 0.0
2018-Jun-20 15:59N 29°58' W 093°52'0 0.0
2018-Jun-20 15:29N 29°58' W 093°52'0 0.0
2018-Jun-20 14:59N 29°58' W 093°52'0 0.0
2018-Jun-20 14:29N 29°58' W 093°52'0 0.0
2018-Jun-20 13:56N 29°58' W 093°52'0 0.0
2018-Jun-20 13:29N 29°58' W 093°52'0 0.0
2018-Jun-20 12:59N 29°58' W 093°52'0 0.0
2018-Jun-20 12:29N 29°58' W 093°52'0 0.0
2018-Jun-20 11:59N 29°58' W 093°52'0 0.0
2018-Jun-20 11:29N 29°58' W 093°52'0 0.0
2018-Jun-20 10:59N 29°58' W 093°52'0 0.0
2018-Jun-20 10:29N 29°58' W 093°52'0 0.0
2018-Jun-20 09:59N 29°58' W 093°52'0 0.0
2018-Jun-20 09:26N 29°58' W 093°52'0 0.0
2018-Jun-20 08:59N 29°58' W 093°52'0 0.0
2018-Jun-20 08:23N 29°58' W 093°52'0 0.0
2018-Jun-20 07:59N 29°58' W 093°52'0 0.0
2018-Jun-20 07:29N 29°58' W 093°52'0 0.0
2018-Jun-20 06:56N 29°58' W 093°52'0 0.0
2018-Jun-20 06:29N 29°58' W 093°52'0 0.0
2018-Jun-20 05:53N 29°58' W 093°52'0 0.0
2018-Jun-20 05:29N 29°58' W 093°52'0 0.0
2018-Jun-20 04:59N 29°58' W 093°52'0 0.0
2018-Jun-20 04:29N 29°58' W 093°52'0 0.0
2018-Jun-20 03:59N 29°58' W 093°52'0 0.0
2018-Jun-20 03:26N 29°58' W 093°52'0 0.0
2018-Jun-20 02:53N 29°58' W 093°52'0 0.0
2018-Jun-20 02:29N 29°58' W 093°52'0 0.0
2018-Jun-20 01:59N 29°58' W 093°52'0 0.0
2018-Jun-20 01:29N 29°58' W 093°52'0 0.0
2018-Jun-20 00:56N 29°58' W 093°52'0 0.0
2018-Jun-20 00:26N 29°58' W 093°52'0 0.0
2018-Jun-19 23:50N 29°58' W 093°52'0 0.0
2018-Jun-19 23:29N 29°58' W 093°52'0 0.0
2018-Jun-19 22:53N 29°58' W 093°52'0 0.0
2018-Jun-19 22:26N 29°58' W 093°52'0 0.0
2018-Jun-19 21:59N 29°58' W 093°52'0 0.0
2018-Jun-19 21:29N 29°58' W 093°52'0 0.0
2018-Jun-19 21:00N 29°58' W 093°52'0 0.9
2018-Jun-19 20:29N 29°58' W 093°52'0 0.2
2018-Jun-19 19:59N 29°58' W 093°52'1 2.3
2018-Jun-19 19:30N 29°59' W 093°52'1 2.1
2018-Jun-19 18:59N 29°58' W 093°52'0 0.0
2018-Jun-19 18:30N 29°58' W 093°52'1 2.6
2018-Jun-19 17:59N 29°59' W 093°53'1 2.6
2018-Jun-19 17:28N 29°58' W 093°52'1 1.7
2018-Jun-19 17:00N 29°57' W 093°52'0 0.6
2018-Jun-19 16:30N 29°58' W 093°52'0 0.0
2018-Jun-19 16:00N 29°58' W 093°52'0 0.0
2018-Jun-19 15:30N 29°58' W 093°52'0 0.0
2018-Jun-19 14:51N 29°58' W 093°52'0 0.0
2018-Jun-19 14:30N 29°58' W 093°52'0 0.0
2018-Jun-19 14:00N 29°58' W 093°52'0 0.0
2018-Jun-19 13:27N 29°58' W 093°52'0 0.0
2018-Jun-19 13:00N 29°58' W 093°52'0 0.0
2018-Jun-19 12:30N 29°58' W 093°52'0 0.0
2018-Jun-19 12:00N 29°58' W 093°52'0 0.0
2018-Jun-19 11:27N 29°58' W 093°52'0 0.0
2018-Jun-19 11:00N 29°58' W 093°52'0 0.0
2018-Jun-19 10:30N 29°58' W 093°52'0 0.0
2018-Jun-19 10:00N 29°58' W 093°52'0 0.0
2018-Jun-19 09:30N 29°58' W 093°52'0 0.0
2018-Jun-19 09:00N 29°58' W 093°52'0 0.0
2018-Jun-19 08:27N 29°58' W 093°52'0 0.0
2018-Jun-19 07:57N 29°58' W 093°52'0 0.0
2018-Jun-19 07:30N 29°58' W 093°52'0 0.0
2018-Jun-19 07:00N 29°58' W 093°52'0 0.0
2018-Jun-19 06:30N 29°58' W 093°52'0 0.0
2018-Jun-19 06:00N 29°58' W 093°52'0 0.0
2018-Jun-19 05:12N 29°58' W 093°52'0 0.0
2018-Jun-19 04:51N 29°58' W 093°52'0 0.0
2018-Jun-19 04:24N 29°58' W 093°52'0 0.0
2018-Jun-19 04:00N 29°58' W 093°52'0 0.0
2018-Jun-19 03:30N 29°58' W 093°52'0 0.0
2018-Jun-19 03:00N 29°58' W 093°52'0 0.0
2018-Jun-19 02:27N 29°58' W 093°52'0 0.0
2018-Jun-19 02:00N 29°58' W 093°52'0 0.0
2018-Jun-19 01:30N 29°58' W 093°52'0 0.0
2018-Jun-19 00:57N 29°58' W 093°52'0 0.0
2018-Jun-19 00:30N 29°58' W 093°52'0 0.0
2018-Jun-19 00:00N 29°58' W 093°52'0 0.0
2018-Jun-18 23:21N 29°58' W 093°52'0 0.0
2018-Jun-18 22:54N 29°58' W 093°52'0 0.0
2018-Jun-18 22:27N 29°58' W 093°52'0 0.0
2018-Jun-18 22:00N 29°58' W 093°52'0 0.0
2018-Jun-18 21:30N 29°58' W 093°52'0 0.0
2018-Jun-18 21:00N 29°58' W 093°52'0 0.0
2018-Jun-18 20:30N 29°58' W 093°52'0 0.0
2018-Jun-18 20:00N 29°58' W 093°52'0 0.0
2018-Jun-18 19:30N 29°58' W 093°52'0 0.0
2018-Jun-18 19:00N 29°58' W 093°52'0 0.0
2018-Jun-18 18:30N 29°58' W 093°52'0 0.0
2018-Jun-18 18:00N 29°58' W 093°52'0 0.0
2018-Jun-18 17:30N 29°58' W 093°52'0 0.0
2018-Jun-18 16:57N 29°58' W 093°52'0 0.0
2018-Jun-18 16:30N 29°58' W 093°52'0 0.0
2018-Jun-18 15:57N 29°58' W 093°52'0 0.0
2018-Jun-18 15:30N 29°58' W 093°52'0 0.0
2018-Jun-18 15:00N 29°58' W 093°52'0 0.0
2018-Jun-18 14:27N 29°58' W 093°52'0 0.0
2018-Jun-18 14:00N 29°58' W 093°52'0 0.0
2018-Jun-18 13:30N 29°58' W 093°52'0 0.0
2018-Jun-18 13:00N 29°58' W 093°52'0 0.0
2018-Jun-18 12:30N 29°58' W 093°52'0 0.0
2018-Jun-18 12:00N 29°58' W 093°52'0 0.0
2018-Jun-18 11:30N 29°58' W 093°52'0 0.0
2018-Jun-18 11:00N 29°58' W 093°52'0 0.0
2018-Jun-18 10:30N 29°58' W 093°52'0 0.0
2018-Jun-18 10:00N 29°58' W 093°52'0 0.0
2018-Jun-18 09:30N 29°58' W 093°52'0 0.0
2018-Jun-18 09:00N 29°58' W 093°52'0 0.0
2018-Jun-18 08:30N 29°58' W 093°52'0 0.0
2018-Jun-18 08:00N 29°58' W 093°52'0 0.0
2018-Jun-18 07:30N 29°58' W 093°52'0 0.0
2018-Jun-18 07:00N 29°58' W 093°52'0 0.0
2018-Jun-18 06:30N 29°58' W 093°52'0 0.0
2018-Jun-18 06:00N 29°58' W 093°52'0 0.0
2018-Jun-18 05:21N 29°58' W 093°52'0 0.0
2018-Jun-18 05:00N 29°58' W 093°52'0 0.0
2018-Jun-18 04:27N 29°58' W 093°52'0 0.0
2018-Jun-18 04:00N 29°58' W 093°52'0 0.0
2018-Jun-18 03:30N 29°58' W 093°52'0 0.1
2018-Jun-18 03:01N 29°58' W 093°52'0 0.3
2018-Jun-18 02:31N 29°57' W 093°52'1 1.6
2018-Jun-18 02:00N 29°57' W 093°52'1 1.3
2018-Jun-18 01:30N 29°56' W 093°52'3 6.4
2018-Jun-18 01:01N 29°54' W 093°55'4 7.0
2018-Jun-18 00:31N 29°51' W 093°57'2 4.6
2018-Jun-18 00:01N 29°49' W 093°59'0 0.7
2018-Jun-17 23:27N 29°49' W 093°59'1 2.1
2018-Jun-17 23:00N 29°48' W 094°00'2 4.6
2018-Jun-17 22:30N 29°47' W 094°02'2 4.6
2018-Jun-17 22:00N 29°45' W 094°04'2 4.6
2018-Jun-17 21:30N 29°44' W 094°06'2 4.6
2018-Jun-17 21:00N 29°42' W 094°08'2 4.2
2018-Jun-17 20:27N 29°41' W 094°10'2 3.6
2018-Jun-17 20:00N 29°41' W 094°12'2 4.7
2018-Jun-17 19:30N 29°40' W 094°15'2 4.6
2018-Jun-17 18:59N 29°39' W 094°17'34 2.9
2018-Jun-17 07:16N 29°35' W 094°56'2 7.1
2018-Jun-17 07:00N 29°36' W 094°57'3 5.4
2018-Jun-17 06:29N 29°37' W 095°00'1 2.0
2018-Jun-17 06:00N 29°37' W 095°01'0 0.1
2018-Jun-17 05:30N 29°37' W 095°02'0 0.1
2018-Jun-17 04:58N 29°37' W 095°02'0 0.0
2018-Jun-17 04:25N 29°37' W 095°02'0 0.0
2018-Jun-17 03:55N 29°37' W 095°02'0 0.0
2018-Jun-17 03:28N 29°37' W 095°02'0 0.0
2018-Jun-17 02:58N 29°37' W 095°02'0 0.0
2018-Jun-17 02:25N 29°37' W 095°02'0 0.0
2018-Jun-17 01:58N 29°37' W 095°02'0 0.0
2018-Jun-17 01:25N 29°37' W 095°02'0 0.0
2018-Jun-17 00:58N 29°37' W 095°02'0 0.0
2018-Jun-17 00:28N 29°37' W 095°02'0 0.0
2018-Jun-16 23:58N 29°37' W 095°02'0 0.0
2018-Jun-16 23:28N 29°37' W 095°02'0 0.0
2018-Jun-16 22:55N 29°37' W 095°02'0 0.0
2018-Jun-16 22:28N 29°37' W 095°02'0 0.0
2018-Jun-16 21:55N 29°37' W 095°02'0 0.0
2018-Jun-16 21:28N 29°37' W 095°02'0 0.0
2018-Jun-16 20:58N 29°37' W 095°02'0 0.0
2018-Jun-16 20:28N 29°37' W 095°02'0 0.0
2018-Jun-16 19:58N 29°37' W 095°02'0 0.0
2018-Jun-16 19:28N 29°37' W 095°02'0 0.0
2018-Jun-16 18:58N 29°37' W 095°02'0 0.0
2018-Jun-16 18:28N 29°37' W 095°02'0 0.0
2018-Jun-16 17:58N 29°37' W 095°02'0 0.0
2018-Jun-16 17:28N 29°37' W 095°02'0 0.0
2018-Jun-16 16:58N 29°37' W 095°02'0 0.0
2018-Jun-16 16:25N 29°37' W 095°02'0 0.0
2018-Jun-16 15:55N 29°37' W 095°02'0 0.0
2018-Jun-16 15:22N 29°37' W 095°02'0 0.0
2018-Jun-16 14:46N 29°37' W 095°02'0 0.0
2018-Jun-16 14:28N 29°37' W 095°02'0 0.0
2018-Jun-16 13:55N 29°37' W 095°02'0 0.0
2018-Jun-16 13:28N 29°37' W 095°02'0 0.0
2018-Jun-16 12:52N 29°37' W 095°02'0 0.0
2018-Jun-16 12:28N 29°37' W 095°02'0 0.0
2018-Jun-16 09:19N 29°37' W 095°02'0 0.0
2018-Jun-16 08:57N 29°37' W 095°02'1 2.6
2018-Jun-16 08:30N 29°37' W 095°00'2 4.7
2018-Jun-16 08:00N 29°38' W 094°58'4 7.7
2018-Jun-16 07:30N 29°41' W 094°59'  

Dump ship's entire track history